sensor_id;sensor_type;location;lat;lon;timestamp;P1;durP1;ratioP1;P2;durP2;ratioP2
47715;SDS011;33476;50.984;3.538;2022-07-23T00:00:13;6.53;;;2.97;;
47715;SDS011;33476;50.984;3.538;2022-07-23T00:02:39;3.33;;;3.03;;
47715;SDS011;33476;50.984;3.538;2022-07-23T00:05:04;6.13;;;3.33;;
47715;SDS011;33476;50.984;3.538;2022-07-23T00:07:30;3.45;;;3.03;;
47715;SDS011;33476;50.984;3.538;2022-07-23T00:09:55;4.45;;;2.92;;
47715;SDS011;33476;50.984;3.538;2022-07-23T00:12:21;7.85;;;2.90;;
47715;SDS011;33476;50.984;3.538;2022-07-23T00:14:46;3.72;;;3.10;;
47715;SDS011;33476;50.984;3.538;2022-07-23T00:17:12;6.60;;;3.08;;
47715;SDS011;33476;50.984;3.538;2022-07-23T00:19:37;3.17;;;2.33;;
47715;SDS011;33476;50.984;3.538;2022-07-23T00:22:03;4.78;;;3.58;;
47715;SDS011;33476;50.984;3.538;2022-07-23T00:24:28;4.30;;;3.13;;
47715;SDS011;33476;50.984;3.538;2022-07-23T00:26:54;3.58;;;3.13;;
47715;SDS011;33476;50.984;3.538;2022-07-23T00:29:19;3.35;;;2.90;;
47715;SDS011;33476;50.984;3.538;2022-07-23T00:31:44;4.78;;;3.10;;
47715;SDS011;33476;50.984;3.538;2022-07-23T00:34:10;5.45;;;3.17;;
47715;SDS011;33476;50.984;3.538;2022-07-23T00:36:35;5.03;;;3.42;;
47715;SDS011;33476;50.984;3.538;2022-07-23T00:39:00;4.30;;;3.25;;
47715;SDS011;33476;50.984;3.538;2022-07-23T00:41:26;4.22;;;3.13;;
47715;SDS011;33476;50.984;3.538;2022-07-23T00:43:51;5.28;;;3.38;;
47715;SDS011;33476;50.984;3.538;2022-07-23T00:46:20;6.05;;;3.40;;
47715;SDS011;33476;50.984;3.538;2022-07-23T00:48:46;7.28;;;4.07;;
47715;SDS011;33476;50.984;3.538;2022-07-23T00:51:12;4.20;;;3.25;;
47715;SDS011;33476;50.984;3.538;2022-07-23T00:53:37;4.03;;;3.17;;
47715;SDS011;33476;50.984;3.538;2022-07-23T00:56:02;4.78;;;3.45;;
47715;SDS011;33476;50.984;3.538;2022-07-23T00:58:28;8.20;;;3.63;;
47715;SDS011;33476;50.984;3.538;2022-07-23T01:00:54;3.83;;;3.42;;
47715;SDS011;33476;50.984;3.538;2022-07-23T01:03:19;4.10;;;3.47;;
47715;SDS011;33476;50.984;3.538;2022-07-23T01:05:45;5.38;;;3.47;;
47715;SDS011;33476;50.984;3.538;2022-07-23T01:08:10;4.38;;;3.60;;
47715;SDS011;33476;50.984;3.538;2022-07-23T01:10:36;5.60;;;3.58;;
47715;SDS011;33476;50.984;3.538;2022-07-23T01:13:05;5.50;;;3.47;;
47715;SDS011;33476;50.984;3.538;2022-07-23T01:15:34;3.95;;;3.05;;
47715;SDS011;33476;50.984;3.538;2022-07-23T01:18:01;4.60;;;3.67;;
47715;SDS011;33476;50.984;3.538;2022-07-23T01:20:28;4.50;;;3.95;;
47715;SDS011;33476;50.984;3.538;2022-07-23T01:22:54;5.15;;;3.40;;
47715;SDS011;33476;50.984;3.538;2022-07-23T01:25:19;4.20;;;3.53;;
47715;SDS011;33476;50.984;3.538;2022-07-23T01:27:45;5.20;;;3.70;;
47715;SDS011;33476;50.984;3.538;2022-07-23T01:30:11;6.25;;;3.55;;
47715;SDS011;33476;50.984;3.538;2022-07-23T01:32:37;5.35;;;3.55;;
47715;SDS011;33476;50.984;3.538;2022-07-23T01:35:03;3.88;;;3.47;;
47715;SDS011;33476;50.984;3.538;2022-07-23T01:37:29;4.72;;;3.85;;
47715;SDS011;33476;50.984;3.538;2022-07-23T01:39:54;5.80;;;4.13;;
47715;SDS011;33476;50.984;3.538;2022-07-23T01:42:19;4.28;;;3.88;;
47715;SDS011;33476;50.984;3.538;2022-07-23T01:44:45;5.88;;;4.18;;
47715;SDS011;33476;50.984;3.538;2022-07-23T01:47:10;5.78;;;4.20;;
47715;SDS011;33476;50.984;3.538;2022-07-23T01:49:35;5.18;;;4.07;;
47715;SDS011;33476;50.984;3.538;2022-07-23T01:52:01;4.20;;;3.67;;
47715;SDS011;33476;50.984;3.538;2022-07-23T01:54:28;4.72;;;4.03;;
47715;SDS011;33476;50.984;3.538;2022-07-23T01:56:55;7.18;;;4.60;;
47715;SDS011;33476;50.984;3.538;2022-07-23T01:59:21;7.45;;;4.43;;
47715;SDS011;33476;50.984;3.538;2022-07-23T02:01:47;5.13;;;4.40;;
47715;SDS011;33476;50.984;3.538;2022-07-23T02:04:12;4.45;;;4.05;;
47715;SDS011;33476;50.984;3.538;2022-07-23T02:06:38;4.78;;;3.85;;
47715;SDS011;33476;50.984;3.538;2022-07-23T02:09:03;5.03;;;4.25;;
47715;SDS011;33476;50.984;3.538;2022-07-23T02:11:29;5.20;;;4.70;;
47715;SDS011;33476;50.984;3.538;2022-07-23T02:13:54;4.88;;;4.13;;
47715;SDS011;33476;50.984;3.538;2022-07-23T02:16:19;6.47;;;4.45;;
47715;SDS011;33476;50.984;3.538;2022-07-23T02:18:45;7.20;;;4.65;;
47715;SDS011;33476;50.984;3.538;2022-07-23T02:21:11;7.40;;;4.68;;
47715;SDS011;33476;50.984;3.538;2022-07-23T02:23:37;7.03;;;4.90;;
47715;SDS011;33476;50.984;3.538;2022-07-23T02:26:02;4.97;;;4.40;;
47715;SDS011;33476;50.984;3.538;2022-07-23T02:28:28;6.95;;;4.38;;
47715;SDS011;33476;50.984;3.538;2022-07-23T02:30:53;8.75;;;4.88;;
47715;SDS011;33476;50.984;3.538;2022-07-23T02:33:18;6.10;;;4.53;;
47715;SDS011;33476;50.984;3.538;2022-07-23T02:35:44;7.47;;;4.32;;
47715;SDS011;33476;50.984;3.538;2022-07-23T02:38:09;6.72;;;5.10;;
47715;SDS011;33476;50.984;3.538;2022-07-23T02:40:34;6.63;;;4.65;;
47715;SDS011;33476;50.984;3.538;2022-07-23T02:43:00;8.88;;;5.03;;
47715;SDS011;33476;50.984;3.538;2022-07-23T02:45:25;6.28;;;4.55;;
47715;SDS011;33476;50.984;3.538;2022-07-23T02:47:50;5.40;;;4.43;;
47715;SDS011;33476;50.984;3.538;2022-07-23T02:50:16;5.10;;;4.28;;
47715;SDS011;33476;50.984;3.538;2022-07-23T02:52:41;6.38;;;4.20;;
47715;SDS011;33476;50.984;3.538;2022-07-23T02:55:07;6.50;;;4.47;;
47715;SDS011;33476;50.984;3.538;2022-07-23T02:57:32;5.50;;;4.35;;
47715;SDS011;33476;50.984;3.538;2022-07-23T02:59:58;6.57;;;4.32;;
47715;SDS011;33476;50.984;3.538;2022-07-23T03:02:23;6.00;;;4.78;;
47715;SDS011;33476;50.984;3.538;2022-07-23T03:04:48;5.63;;;4.28;;
47715;SDS011;33476;50.984;3.538;2022-07-23T03:07:15;6.07;;;4.35;;
47715;SDS011;33476;50.984;3.538;2022-07-23T03:09:43;5.25;;;4.45;;
47715;SDS011;33476;50.984;3.538;2022-07-23T03:12:09;6.25;;;4.32;;
47715;SDS011;33476;50.984;3.538;2022-07-23T03:14:34;5.82;;;4.07;;
47715;SDS011;33476;50.984;3.538;2022-07-23T03:16:59;5.03;;;4.10;;
47715;SDS011;33476;50.984;3.538;2022-07-23T03:19:25;10.20;;;4.28;;
47715;SDS011;33476;50.984;3.538;2022-07-23T03:21:51;5.25;;;3.72;;
47715;SDS011;33476;50.984;3.538;2022-07-23T03:24:16;6.65;;;4.30;;
47715;SDS011;33476;50.984;3.538;2022-07-23T03:26:44;5.28;;;4.20;;
47715;SDS011;33476;50.984;3.538;2022-07-23T03:29:10;4.93;;;4.15;;
47715;SDS011;33476;50.984;3.538;2022-07-23T03:31:35;6.03;;;4.53;;
47715;SDS011;33476;50.984;3.538;2022-07-23T03:34:01;5.97;;;4.03;;
47715;SDS011;33476;50.984;3.538;2022-07-23T03:36:26;4.95;;;4.35;;
47715;SDS011;33476;50.984;3.538;2022-07-23T03:38:52;6.47;;;4.38;;
47715;SDS011;33476;50.984;3.538;2022-07-23T03:41:18;6.00;;;4.43;;
47715;SDS011;33476;50.984;3.538;2022-07-23T03:43:45;6.90;;;4.43;;
47715;SDS011;33476;50.984;3.538;2022-07-23T03:46:10;7.85;;;4.80;;
47715;SDS011;33476;50.984;3.538;2022-07-23T03:48:36;5.28;;;4.32;;
47715;SDS011;33476;50.984;3.538;2022-07-23T03:51:01;5.40;;;4.30;;
47715;SDS011;33476;50.984;3.538;2022-07-23T03:53:27;6.85;;;4.47;;
47715;SDS011;33476;50.984;3.538;2022-07-23T03:55:53;5.10;;;4.50;;
47715;SDS011;33476;50.984;3.538;2022-07-23T03:58:18;4.60;;;3.67;;
47715;SDS011;33476;50.984;3.538;2022-07-23T04:00:43;4.63;;;4.00;;
47715;SDS011;33476;50.984;3.538;2022-07-23T04:03:09;5.80;;;4.78;;
47715;SDS011;33476;50.984;3.538;2022-07-23T04:05:34;6.60;;;5.18;;
47715;SDS011;33476;50.984;3.538;2022-07-23T04:07:59;6.80;;;4.32;;
47715;SDS011;33476;50.984;3.538;2022-07-23T04:10:25;7.10;;;4.32;;
47715;SDS011;33476;50.984;3.538;2022-07-23T04:12:50;5.10;;;4.28;;
47715;SDS011;33476;50.984;3.538;2022-07-23T04:15:15;6.93;;;4.60;;
47715;SDS011;33476;50.984;3.538;2022-07-23T04:17:41;5.85;;;4.88;;
47715;SDS011;33476;50.984;3.538;2022-07-23T04:20:06;5.80;;;5.07;;
47715;SDS011;33476;50.984;3.538;2022-07-23T04:22:32;7.97;;;4.90;;
47715;SDS011;33476;50.984;3.538;2022-07-23T04:24:57;6.00;;;5.35;;
47715;SDS011;33476;50.984;3.538;2022-07-23T04:27:23;11.25;;;5.35;;
47715;SDS011;33476;50.984;3.538;2022-07-23T04:29:49;7.55;;;4.72;;
47715;SDS011;33476;50.984;3.538;2022-07-23T04:32:14;7.60;;;4.50;;
47715;SDS011;33476;50.984;3.538;2022-07-23T04:34:39;7.15;;;4.97;;
47715;SDS011;33476;50.984;3.538;2022-07-23T04:37:05;11.18;;;5.57;;
47715;SDS011;33476;50.984;3.538;2022-07-23T04:39:30;7.53;;;5.18;;
47715;SDS011;33476;50.984;3.538;2022-07-23T04:41:55;9.73;;;5.13;;
47715;SDS011;33476;50.984;3.538;2022-07-23T04:44:21;8.65;;;5.80;;
47715;SDS011;33476;50.984;3.538;2022-07-23T04:46:46;7.93;;;5.05;;
47715;SDS011;33476;50.984;3.538;2022-07-23T04:49:11;6.20;;;4.80;;
47715;SDS011;33476;50.984;3.538;2022-07-23T04:51:37;13.23;;;5.55;;
47715;SDS011;33476;50.984;3.538;2022-07-23T04:54:02;7.18;;;5.22;;
47715;SDS011;33476;50.984;3.538;2022-07-23T04:56:28;6.25;;;5.13;;
47715;SDS011;33476;50.984;3.538;2022-07-23T04:58:53;7.35;;;4.68;;
47715;SDS011;33476;50.984;3.538;2022-07-23T05:01:18;6.45;;;4.50;;
47715;SDS011;33476;50.984;3.538;2022-07-23T05:03:44;7.38;;;5.70;;
47715;SDS011;33476;50.984;3.538;2022-07-23T05:06:09;7.45;;;5.70;;
47715;SDS011;33476;50.984;3.538;2022-07-23T05:08:34;9.32;;;5.68;;
47715;SDS011;33476;50.984;3.538;2022-07-23T05:11:00;9.02;;;5.55;;
47715;SDS011;33476;50.984;3.538;2022-07-23T05:13:25;10.05;;;6.05;;
47715;SDS011;33476;50.984;3.538;2022-07-23T05:15:51;9.95;;;5.88;;
47715;SDS011;33476;50.984;3.538;2022-07-23T05:18:16;9.40;;;6.82;;
47715;SDS011;33476;50.984;3.538;2022-07-23T05:20:42;9.77;;;6.60;;
47715;SDS011;33476;50.984;3.538;2022-07-23T05:23:07;11.00;;;6.50;;
47715;SDS011;33476;50.984;3.538;2022-07-23T05:25:33;9.15;;;6.18;;
47715;SDS011;33476;50.984;3.538;2022-07-23T05:27:58;8.77;;;6.45;;
47715;SDS011;33476;50.984;3.538;2022-07-23T05:30:23;10.65;;;6.78;;
47715;SDS011;33476;50.984;3.538;2022-07-23T05:32:49;10.43;;;7.18;;
47715;SDS011;33476;50.984;3.538;2022-07-23T05:35:14;10.60;;;7.00;;
47715;SDS011;33476;50.984;3.538;2022-07-23T05:37:39;11.15;;;6.78;;
47715;SDS011;33476;50.984;3.538;2022-07-23T05:40:06;10.93;;;6.88;;
47715;SDS011;33476;50.984;3.538;2022-07-23T05:42:34;10.23;;;7.93;;
47715;SDS011;33476;50.984;3.538;2022-07-23T05:45:00;9.20;;;6.97;;
47715;SDS011;33476;50.984;3.538;2022-07-23T05:47:25;11.40;;;6.97;;
47715;SDS011;33476;50.984;3.538;2022-07-23T05:49:51;11.65;;;6.80;;
47715;SDS011;33476;50.984;3.538;2022-07-23T05:52:16;9.50;;;7.20;;
47715;SDS011;33476;50.984;3.538;2022-07-23T05:54:42;9.23;;;7.00;;
47715;SDS011;33476;50.984;3.538;2022-07-23T05:57:07;9.95;;;6.97;;
47715;SDS011;33476;50.984;3.538;2022-07-23T05:59:33;9.60;;;6.70;;
47715;SDS011;33476;50.984;3.538;2022-07-23T06:01:58;8.82;;;6.85;;
47715;SDS011;33476;50.984;3.538;2022-07-23T06:04:24;12.85;;;6.38;;
47715;SDS011;33476;50.984;3.538;2022-07-23T06:06:49;10.98;;;6.50;;
47715;SDS011;33476;50.984;3.538;2022-07-23T06:09:14;9.48;;;5.97;;
47715;SDS011;33476;50.984;3.538;2022-07-23T06:11:40;11.27;;;6.78;;
47715;SDS011;33476;50.984;3.538;2022-07-23T06:14:06;10.07;;;6.20;;
47715;SDS011;33476;50.984;3.538;2022-07-23T06:16:31;9.93;;;6.65;;
47715;SDS011;33476;50.984;3.538;2022-07-23T06:18:56;10.40;;;6.15;;
47715;SDS011;33476;50.984;3.538;2022-07-23T06:21:22;8.93;;;6.32;;
47715;SDS011;33476;50.984;3.538;2022-07-23T06:23:47;10.25;;;6.45;;
47715;SDS011;33476;50.984;3.538;2022-07-23T06:26:13;10.65;;;6.93;;
47715;SDS011;33476;50.984;3.538;2022-07-23T06:28:38;8.90;;;6.13;;
47715;SDS011;33476;50.984;3.538;2022-07-23T06:31:03;7.75;;;6.15;;
47715;SDS011;33476;50.984;3.538;2022-07-23T06:33:29;9.65;;;6.40;;
47715;SDS011;33476;50.984;3.538;2022-07-23T06:35:54;12.32;;;6.47;;
47715;SDS011;33476;50.984;3.538;2022-07-23T06:38:19;10.90;;;6.40;;
47715;SDS011;33476;50.984;3.538;2022-07-23T06:40:45;10.43;;;5.88;;
47715;SDS011;33476;50.984;3.538;2022-07-23T06:43:10;7.30;;;5.95;;
47715;SDS011;33476;50.984;3.538;2022-07-23T06:45:35;9.90;;;6.43;;
47715;SDS011;33476;50.984;3.538;2022-07-23T06:48:01;11.13;;;5.78;;
47715;SDS011;33476;50.984;3.538;2022-07-23T06:50:28;10.57;;;5.93;;
47715;SDS011;33476;50.984;3.538;2022-07-23T06:52:53;8.77;;;5.85;;
47715;SDS011;33476;50.984;3.538;2022-07-23T06:55:19;7.47;;;5.85;;
47715;SDS011;33476;50.984;3.538;2022-07-23T06:57:44;9.48;;;5.78;;
47715;SDS011;33476;50.984;3.538;2022-07-23T07:00:10;8.07;;;5.90;;
47715;SDS011;33476;50.984;3.538;2022-07-23T07:02:36;8.80;;;6.00;;
47715;SDS011;33476;50.984;3.538;2022-07-23T07:05:01;8.63;;;6.07;;
47715;SDS011;33476;50.984;3.538;2022-07-23T07:07:27;10.10;;;6.50;;
47715;SDS011;33476;50.984;3.538;2022-07-23T07:09:53;8.80;;;6.63;;
47715;SDS011;33476;50.984;3.538;2022-07-23T07:12:18;9.18;;;6.00;;
47715;SDS011;33476;50.984;3.538;2022-07-23T07:14:43;8.07;;;5.90;;
47715;SDS011;33476;50.984;3.538;2022-07-23T07:17:09;10.75;;;5.88;;
47715;SDS011;33476;50.984;3.538;2022-07-23T07:19:35;8.82;;;6.38;;
47715;SDS011;33476;50.984;3.538;2022-07-23T07:22:01;12.40;;;6.57;;
47715;SDS011;33476;50.984;3.538;2022-07-23T07:24:27;8.35;;;5.25;;
47715;SDS011;33476;50.984;3.538;2022-07-23T07:26:52;9.07;;;5.53;;
47715;SDS011;33476;50.984;3.538;2022-07-23T07:29:18;7.05;;;5.30;;
47715;SDS011;33476;50.984;3.538;2022-07-23T07:31:43;10.48;;;5.85;;
47715;SDS011;33476;50.984;3.538;2022-07-23T07:34:09;7.40;;;5.65;;
47715;SDS011;33476;50.984;3.538;2022-07-23T07:36:34;10.90;;;5.93;;
47715;SDS011;33476;50.984;3.538;2022-07-23T07:39:02;9.23;;;5.07;;
47715;SDS011;33476;50.984;3.538;2022-07-23T07:41:29;8.05;;;5.65;;
47715;SDS011;33476;50.984;3.538;2022-07-23T07:43:55;10.27;;;5.65;;
47715;SDS011;33476;50.984;3.538;2022-07-23T07:46:20;6.95;;;5.28;;
47715;SDS011;33476;50.984;3.538;2022-07-23T07:48:45;12.63;;;5.75;;
47715;SDS011;33476;50.984;3.538;2022-07-23T07:51:11;9.80;;;5.70;;
47715;SDS011;33476;50.984;3.538;2022-07-23T07:53:36;8.95;;;5.47;;
47715;SDS011;33476;50.984;3.538;2022-07-23T07:56:01;10.35;;;5.38;;
47715;SDS011;33476;50.984;3.538;2022-07-23T07:58:27;7.68;;;5.75;;
47715;SDS011;33476;50.984;3.538;2022-07-23T08:00:52;8.73;;;6.10;;
47715;SDS011;33476;50.984;3.538;2022-07-23T08:03:17;9.50;;;5.47;;
47715;SDS011;33476;50.984;3.538;2022-07-23T08:05:43;15.02;;;5.70;;
47715;SDS011;33476;50.984;3.538;2022-07-23T08:08:08;6.75;;;5.30;;
47715;SDS011;33476;50.984;3.538;2022-07-23T08:10:39;10.60;;;5.60;;
47715;SDS011;33476;50.984;3.538;2022-07-23T08:13:05;10.10;;;5.88;;
47715;SDS011;33476;50.984;3.538;2022-07-23T08:15:31;7.90;;;5.35;;
47715;SDS011;33476;50.984;3.538;2022-07-23T08:17:57;10.27;;;5.78;;
47715;SDS011;33476;50.984;3.538;2022-07-23T08:20:24;7.15;;;5.05;;
47715;SDS011;33476;50.984;3.538;2022-07-23T08:22:54;8.13;;;4.75;;
47715;SDS011;33476;50.984;3.538;2022-07-23T08:25:24;10.38;;;5.70;;
47715;SDS011;33476;50.984;3.538;2022-07-23T08:27:52;8.10;;;5.07;;
47715;SDS011;33476;50.984;3.538;2022-07-23T08:30:18;8.95;;;5.03;;
47715;SDS011;33476;50.984;3.538;2022-07-23T08:33:04;11.30;;;5.18;;
47715;SDS011;33476;50.984;3.538;2022-07-23T08:35:33;8.70;;;4.82;;
47715;SDS011;33476;50.984;3.538;2022-07-23T08:38:01;9.30;;;4.30;;
47715;SDS011;33476;50.984;3.538;2022-07-23T08:40:29;6.82;;;4.38;;
47715;SDS011;33476;50.984;3.538;2022-07-23T08:42:55;8.05;;;4.93;;
47715;SDS011;33476;50.984;3.538;2022-07-23T08:45:22;7.30;;;4.97;;
47715;SDS011;33476;50.984;3.538;2022-07-23T08:47:49;9.32;;;5.05;;
47715;SDS011;33476;50.984;3.538;2022-07-23T08:50:16;11.10;;;5.50;;
47715;SDS011;33476;50.984;3.538;2022-07-23T08:52:42;9.10;;;5.30;;
47715;SDS011;33476;50.984;3.538;2022-07-23T08:55:08;7.18;;;4.18;;
47715;SDS011;33476;50.984;3.538;2022-07-23T08:57:34;6.85;;;4.35;;
47715;SDS011;33476;50.984;3.538;2022-07-23T08:59:59;6.18;;;3.38;;
47715;SDS011;33476;50.984;3.538;2022-07-23T09:02:25;5.80;;;3.20;;
47715;SDS011;33476;50.984;3.538;2022-07-23T09:04:50;4.63;;;3.53;;
47715;SDS011;33476;50.984;3.538;2022-07-23T09:07:16;9.18;;;4.63;;
47715;SDS011;33476;50.984;3.538;2022-07-23T09:09:41;4.30;;;3.53;;
47715;SDS011;33476;50.984;3.538;2022-07-23T09:12:07;5.93;;;3.75;;
47715;SDS011;33476;50.984;3.538;2022-07-23T09:14:41;6.70;;;4.07;;
47715;SDS011;33476;50.984;3.538;2022-07-23T09:17:12;5.97;;;3.85;;
47715;SDS011;33476;50.984;3.538;2022-07-23T09:19:40;6.72;;;4.43;;
47715;SDS011;33476;50.984;3.538;2022-07-23T09:25:08;4.65;;;2.20;;
47715;SDS011;33476;50.984;3.538;2022-07-23T09:27:56;3.65;;;2.38;;
47715;SDS011;33476;50.984;3.538;2022-07-23T09:30:26;3.20;;;2.15;;
47715;SDS011;33476;50.984;3.538;2022-07-23T09:35:44;3.10;;;2.25;;
47715;SDS011;33476;50.984;3.538;2022-07-23T09:38:10;3.53;;;1.30;;
47715;SDS011;33476;50.984;3.538;2022-07-23T09:40:36;3.92;;;2.08;;
47715;SDS011;33476;50.984;3.538;2022-07-23T09:43:02;4.35;;;1.60;;
47715;SDS011;33476;50.984;3.538;2022-07-23T09:45:27;5.32;;;2.88;;
47715;SDS011;33476;50.984;3.538;2022-07-23T09:47:56;4.13;;;2.75;;
47715;SDS011;33476;50.984;3.538;2022-07-23T09:50:35;3.00;;;2.53;;
47715;SDS011;33476;50.984;3.538;2022-07-23T09:53:01;3.33;;;2.53;;
47715;SDS011;33476;50.984;3.538;2022-07-23T09:55:30;6.57;;;2.78;;
47715;SDS011;33476;50.984;3.538;2022-07-23T09:58:01;4.50;;;2.38;;
47715;SDS011;33476;50.984;3.538;2022-07-23T10:00:27;5.40;;;2.28;;
47715;SDS011;33476;50.984;3.538;2022-07-23T10:02:54;5.32;;;2.72;;
47715;SDS011;33476;50.984;3.538;2022-07-23T10:05:20;6.28;;;2.28;;
47715;SDS011;33476;50.984;3.538;2022-07-23T10:07:46;4.88;;;2.60;;
47715;SDS011;33476;50.984;3.538;2022-07-23T10:10:13;4.55;;;3.08;;
47715;SDS011;33476;50.984;3.538;2022-07-23T10:12:39;5.57;;;2.95;;
47715;SDS011;33476;50.984;3.538;2022-07-23T10:15:16;6.82;;;3.72;;
47715;SDS011;33476;50.984;3.538;2022-07-23T10:17:42;4.40;;;2.55;;
47715;SDS011;33476;50.984;3.538;2022-07-23T10:20:08;4.00;;;3.10;;
47715;SDS011;33476;50.984;3.538;2022-07-23T10:22:34;5.32;;;2.90;;
47715;SDS011;33476;50.984;3.538;2022-07-23T10:30:25;6.88;;;2.90;;
47715;SDS011;33476;50.984;3.538;2022-07-23T10:36:02;3.50;;;2.63;;
47715;SDS011;33476;50.984;3.538;2022-07-23T10:38:37;6.82;;;3.05;;
47715;SDS011;33476;50.984;3.538;2022-07-23T10:41:12;6.38;;;2.47;;
47715;SDS011;33476;50.984;3.538;2022-07-23T10:43:38;11.40;;;2.78;;
47715;SDS011;33476;50.984;3.538;2022-07-23T10:49:20;4.32;;;2.63;;
47715;SDS011;33476;50.984;3.538;2022-07-23T10:54:55;5.63;;;2.20;;
47715;SDS011;33476;50.984;3.538;2022-07-23T10:57:48;6.82;;;2.40;;
47715;SDS011;33476;50.984;3.538;2022-07-23T11:00:36;7.00;;;2.40;;
47715;SDS011;33476;50.984;3.538;2022-07-23T11:03:02;5.88;;;2.67;;
47715;SDS011;33476;50.984;3.538;2022-07-23T11:37:09;2.13;;;1.05;;
47715;SDS011;33476;50.984;3.538;2022-07-23T11:39:36;2.92;;;0.80;;
47715;SDS011;33476;50.984;3.538;2022-07-23T11:42:03;2.17;;;1.25;;
47715;SDS011;33476;50.984;3.538;2022-07-23T11:44:31;3.60;;;0.77;;
47715;SDS011;33476;50.984;3.538;2022-07-23T11:47:09;4.00;;;1.17;;
47715;SDS011;33476;50.984;3.538;2022-07-23T11:49:35;2.90;;;0.88;;
47715;SDS011;33476;50.984;3.538;2022-07-23T11:52:08;2.85;;;0.85;;
47715;SDS011;33476;50.984;3.538;2022-07-23T11:54:36;3.25;;;1.42;;
47715;SDS011;33476;50.984;3.538;2022-07-23T11:57:12;3.70;;;0.80;;
47715;SDS011;33476;50.984;3.538;2022-07-23T11:59:38;2.85;;;1.40;;
47715;SDS011;33476;50.984;3.538;2022-07-23T12:02:05;4.43;;;1.05;;
47715;SDS011;33476;50.984;3.538;2022-07-23T12:04:38;7.10;;;1.00;;
47715;SDS011;33476;50.984;3.538;2022-07-23T12:09:55;4.47;;;2.58;;
47715;SDS011;33476;50.984;3.538;2022-07-23T12:12:21;5.75;;;1.88;;
47715;SDS011;33476;50.984;3.538;2022-07-23T12:14:48;2.85;;;1.40;;
47715;SDS011;33476;50.984;3.538;2022-07-23T12:17:14;3.67;;;1.80;;
47715;SDS011;33476;50.984;3.538;2022-07-23T12:19:39;3.38;;;1.45;;
47715;SDS011;33476;50.984;3.538;2022-07-23T12:22:05;3.00;;;1.58;;
47715;SDS011;33476;50.984;3.538;2022-07-23T12:24:31;3.67;;;2.05;;
47715;SDS011;33476;50.984;3.538;2022-07-23T12:27:11;4.38;;;1.80;;
47715;SDS011;33476;50.984;3.538;2022-07-23T12:29:39;4.00;;;1.27;;
47715;SDS011;33476;50.984;3.538;2022-07-23T12:32:26;3.58;;;1.45;;
47715;SDS011;33476;50.984;3.538;2022-07-23T12:35:04;6.80;;;2.15;;
47715;SDS011;33476;50.984;3.538;2022-07-23T12:37:35;6.97;;;2.35;;
47715;SDS011;33476;50.984;3.538;2022-07-23T12:43:10;3.53;;;1.35;;
47715;SDS011;33476;50.984;3.538;2022-07-23T12:51:01;4.35;;;2.15;;
47715;SDS011;33476;50.984;3.538;2022-07-23T12:53:37;2.80;;;1.70;;
47715;SDS011;33476;50.984;3.538;2022-07-23T12:56:17;2.92;;;1.65;;
47715;SDS011;33476;50.984;3.538;2022-07-23T12:58:57;4.65;;;1.80;;
47715;SDS011;33476;50.984;3.538;2022-07-23T13:01:32;3.88;;;1.33;;
47715;SDS011;33476;50.984;3.538;2022-07-23T13:06:29;4.28;;;1.23;;
47715;SDS011;33476;50.984;3.538;2022-07-23T13:08:56;4.45;;;1.13;;
47715;SDS011;33476;50.984;3.538;2022-07-23T13:11:21;7.18;;;1.40;;
47715;SDS011;33476;50.984;3.538;2022-07-23T13:13:47;4.80;;;1.67;;
47715;SDS011;33476;50.984;3.538;2022-07-23T13:16:12;4.47;;;1.23;;
47715;SDS011;33476;50.984;3.538;2022-07-23T13:18:38;6.00;;;1.38;;
47715;SDS011;33476;50.984;3.538;2022-07-23T13:21:03;3.70;;;1.77;;
47715;SDS011;33476;50.984;3.538;2022-07-23T13:23:28;2.35;;;1.60;;
47715;SDS011;33476;50.984;3.538;2022-07-23T13:25:54;3.90;;;1.50;;
47715;SDS011;33476;50.984;3.538;2022-07-23T13:28:20;3.28;;;1.65;;
47715;SDS011;33476;50.984;3.538;2022-07-23T13:30:49;2.95;;;1.42;;
47715;SDS011;33476;50.984;3.538;2022-07-23T13:33:19;3.08;;;1.52;;
47715;SDS011;33476;50.984;3.538;2022-07-23T13:38:11;4.97;;;1.90;;
47715;SDS011;33476;50.984;3.538;2022-07-23T13:40:38;3.15;;;2.30;;
47715;SDS011;33476;50.984;3.538;2022-07-23T13:43:07;3.80;;;1.90;;
47715;SDS011;33476;50.984;3.538;2022-07-23T13:45:33;3.88;;;2.28;;
47715;SDS011;33476;50.984;3.538;2022-07-23T13:47:59;7.65;;;1.70;;
47715;SDS011;33476;50.984;3.538;2022-07-23T13:50:25;5.95;;;2.13;;
47715;SDS011;33476;50.984;3.538;2022-07-23T13:52:50;5.13;;;1.98;;
47715;SDS011;33476;50.984;3.538;2022-07-23T13:55:16;2.78;;;1.80;;
47715;SDS011;33476;50.984;3.538;2022-07-23T13:57:41;3.17;;;2.03;;
47715;SDS011;33476;50.984;3.538;2022-07-23T14:00:07;2.80;;;1.90;;
47715;SDS011;33476;50.984;3.538;2022-07-23T14:02:35;2.85;;;1.70;;
47715;SDS011;33476;50.984;3.538;2022-07-23T14:05:02;3.28;;;1.90;;
47715;SDS011;33476;50.984;3.538;2022-07-23T14:07:28;5.32;;;2.70;;
47715;SDS011;33476;50.984;3.538;2022-07-23T14:09:53;4.10;;;2.45;;
47715;SDS011;33476;50.984;3.538;2022-07-23T14:12:19;4.03;;;1.83;;
47715;SDS011;33476;50.984;3.538;2022-07-23T14:14:44;3.40;;;2.30;;
47715;SDS011;33476;50.984;3.538;2022-07-23T14:17:10;2.72;;;1.80;;
47715;SDS011;33476;50.984;3.538;2022-07-23T14:19:35;3.30;;;2.22;;
47715;SDS011;33476;50.984;3.538;2022-07-23T14:22:00;5.53;;;2.55;;
47715;SDS011;33476;50.984;3.538;2022-07-23T14:24:26;3.38;;;2.20;;
47715;SDS011;33476;50.984;3.538;2022-07-23T14:26:51;3.40;;;2.40;;
47715;SDS011;33476;50.984;3.538;2022-07-23T14:29:16;6.35;;;2.83;;
47715;SDS011;33476;50.984;3.538;2022-07-23T14:31:42;5.07;;;2.03;;
47715;SDS011;33476;50.984;3.538;2022-07-23T14:34:07;4.82;;;3.10;;
47715;SDS011;33476;50.984;3.538;2022-07-23T14:36:33;4.07;;;2.78;;
47715;SDS011;33476;50.984;3.538;2022-07-23T14:38:58;5.05;;;3.30;;
47715;SDS011;33476;50.984;3.538;2022-07-23T14:41:23;4.93;;;3.13;;
47715;SDS011;33476;50.984;3.538;2022-07-23T14:43:49;7.00;;;3.20;;
47715;SDS011;33476;50.984;3.538;2022-07-23T14:46:14;3.85;;;3.05;;
47715;SDS011;33476;50.984;3.538;2022-07-23T14:48:40;5.35;;;2.92;;
47715;SDS011;33476;50.984;3.538;2022-07-23T14:51:05;3.65;;;2.50;;
47715;SDS011;33476;50.984;3.538;2022-07-23T14:53:31;3.55;;;2.50;;
47715;SDS011;33476;50.984;3.538;2022-07-23T14:55:56;7.25;;;2.75;;
47715;SDS011;33476;50.984;3.538;2022-07-23T14:58:24;4.32;;;3.03;;
47715;SDS011;33476;50.984;3.538;2022-07-23T15:00:50;5.03;;;2.72;;
47715;SDS011;33476;50.984;3.538;2022-07-23T15:03:15;5.93;;;3.05;;
47715;SDS011;33476;50.984;3.538;2022-07-23T15:05:41;4.93;;;3.72;;
47715;SDS011;33476;50.984;3.538;2022-07-23T15:08:06;4.95;;;3.00;;
47715;SDS011;33476;50.984;3.538;2022-07-23T15:10:32;5.15;;;2.60;;
47715;SDS011;33476;50.984;3.538;2022-07-23T15:12:57;5.30;;;3.35;;
47715;SDS011;33476;50.984;3.538;2022-07-23T15:15:23;5.70;;;3.08;;
47715;SDS011;33476;50.984;3.538;2022-07-23T15:17:48;4.22;;;2.78;;
47715;SDS011;33476;50.984;3.538;2022-07-23T15:20:13;2.97;;;2.70;;
47715;SDS011;33476;50.984;3.538;2022-07-23T15:22:39;4.05;;;3.10;;
47715;SDS011;33476;50.984;3.538;2022-07-23T15:25:04;3.40;;;3.10;;
47715;SDS011;33476;50.984;3.538;2022-07-23T15:27:30;6.50;;;3.20;;
47715;SDS011;33476;50.984;3.538;2022-07-23T15:29:56;4.35;;;3.28;;
47715;SDS011;33476;50.984;3.538;2022-07-23T15:32:21;4.30;;;3.05;;
47715;SDS011;33476;50.984;3.538;2022-07-23T15:34:49;3.50;;;2.90;;
47715;SDS011;33476;50.984;3.538;2022-07-23T15:37:15;6.70;;;3.33;;
47715;SDS011;33476;50.984;3.538;2022-07-23T15:39:40;3.75;;;3.00;;
47715;SDS011;33476;50.984;3.538;2022-07-23T15:42:06;5.03;;;2.95;;
47715;SDS011;33476;50.984;3.538;2022-07-23T15:44:31;6.30;;;2.67;;
47715;SDS011;33476;50.984;3.538;2022-07-23T15:46:57;4.25;;;2.50;;
47715;SDS011;33476;50.984;3.538;2022-07-23T15:49:23;9.27;;;2.70;;